sensor_id;sensor_type;location;lat;lon;timestamp;P1;durP1;ratioP1;P2;durP2;ratioP2
12958;SDS011;6544;51.666;6.634;2023-02-27T00:02:24;5.57;;;2.67;;
12958;SDS011;6544;51.666;6.634;2023-02-27T00:04:51;3.63;;;2.47;;
12958;SDS011;6544;51.666;6.634;2023-02-27T00:07:21;10.53;;;2.47;;
12958;SDS011;6544;51.666;6.634;2023-02-27T00:09:50;4.33;;;2.53;;
12958;SDS011;6544;51.666;6.634;2023-02-27T00:12:18;6.87;;;2.43;;
12958;SDS011;6544;51.666;6.634;2023-02-27T00:14:45;5.87;;;2.50;;
12958;SDS011;6544;51.666;6.634;2023-02-27T00:17:12;5.20;;;2.50;;
12958;SDS011;6544;51.666;6.634;2023-02-27T00:19:39;3.63;;;2.30;;
12958;SDS011;6544;51.666;6.634;2023-02-27T00:22:06;6.70;;;2.33;;
12958;SDS011;6544;51.666;6.634;2023-02-27T00:24:33;4.47;;;2.30;;
12958;SDS011;6544;51.666;6.634;2023-02-27T00:26:59;4.27;;;2.50;;
12958;SDS011;6544;51.666;6.634;2023-02-27T00:29:28;6.10;;;2.80;;
12958;SDS011;6544;51.666;6.634;2023-02-27T00:31:54;7.23;;;2.90;;
12958;SDS011;6544;51.666;6.634;2023-02-27T00:34:21;7.67;;;3.23;;
12958;SDS011;6544;51.666;6.634;2023-02-27T00:36:48;4.30;;;2.73;;
12958;SDS011;6544;51.666;6.634;2023-02-27T00:39:15;6.40;;;3.10;;
12958;SDS011;6544;51.666;6.634;2023-02-27T00:41:42;9.27;;;3.00;;
12958;SDS011;6544;51.666;6.634;2023-02-27T00:44:09;4.43;;;2.80;;
12958;SDS011;6544;51.666;6.634;2023-02-27T00:46:37;6.03;;;2.93;;
12958;SDS011;6544;51.666;6.634;2023-02-27T00:49:04;8.23;;;3.33;;
12958;SDS011;6544;51.666;6.634;2023-02-27T00:51:31;6.90;;;3.07;;
12958;SDS011;6544;51.666;6.634;2023-02-27T00:53:58;4.07;;;2.90;;
12958;SDS011;6544;51.666;6.634;2023-02-27T00:56:24;5.37;;;3.17;;
12958;SDS011;6544;51.666;6.634;2023-02-27T00:58:51;8.27;;;3.87;;
12958;SDS011;6544;51.666;6.634;2023-02-27T01:01:18;5.50;;;4.10;;
12958;SDS011;6544;51.666;6.634;2023-02-27T01:03:46;7.43;;;4.00;;
12958;SDS011;6544;51.666;6.634;2023-02-27T01:06:13;6.00;;;4.17;;
12958;SDS011;6544;51.666;6.634;2023-02-27T01:08:40;7.23;;;3.70;;
12958;SDS011;6544;51.666;6.634;2023-02-27T01:11:07;4.70;;;3.10;;
12958;SDS011;6544;51.666;6.634;2023-02-27T01:13:34;6.53;;;2.90;;
12958;SDS011;6544;51.666;6.634;2023-02-27T01:16:01;7.13;;;2.97;;
12958;SDS011;6544;51.666;6.634;2023-02-27T01:18:27;4.50;;;2.80;;
12958;SDS011;6544;51.666;6.634;2023-02-27T01:20:56;7.83;;;2.97;;
12958;SDS011;6544;51.666;6.634;2023-02-27T01:23:22;4.90;;;2.70;;
12958;SDS011;6544;51.666;6.634;2023-02-27T01:25:49;8.03;;;3.20;;
12958;SDS011;6544;51.666;6.634;2023-02-27T01:28:16;5.37;;;2.97;;
12958;SDS011;6544;51.666;6.634;2023-02-27T01:30:43;5.57;;;2.73;;
12958;SDS011;6544;51.666;6.634;2023-02-27T01:33:10;6.23;;;3.13;;
12958;SDS011;6544;51.666;6.634;2023-02-27T01:35:37;5.23;;;2.80;;
12958;SDS011;6544;51.666;6.634;2023-02-27T01:38:06;5.97;;;3.30;;
12958;SDS011;6544;51.666;6.634;2023-02-27T01:40:34;7.30;;;3.10;;
12958;SDS011;6544;51.666;6.634;2023-02-27T01:43:01;7.10;;;3.30;;
12958;SDS011;6544;51.666;6.634;2023-02-27T01:45:30;7.60;;;3.23;;
12958;SDS011;6544;51.666;6.634;2023-02-27T01:48:00;5.73;;;3.30;;
12958;SDS011;6544;51.666;6.634;2023-02-27T01:50:31;7.33;;;3.13;;
12958;SDS011;6544;51.666;6.634;2023-02-27T01:53:00;5.07;;;3.20;;
12958;SDS011;6544;51.666;6.634;2023-02-27T01:55:30;5.00;;;3.07;;
12958;SDS011;6544;51.666;6.634;2023-02-27T01:58:02;4.43;;;3.00;;
12958;SDS011;6544;51.666;6.634;2023-02-27T02:00:30;6.33;;;3.10;;
12958;SDS011;6544;51.666;6.634;2023-02-27T02:02:58;6.87;;;3.40;;
12958;SDS011;6544;51.666;6.634;2023-02-27T02:05:32;7.23;;;3.10;;
12958;SDS011;6544;51.666;6.634;2023-02-27T02:07:59;8.17;;;3.10;;
12958;SDS011;6544;51.666;6.634;2023-02-27T02:10:27;5.40;;;3.30;;
12958;SDS011;6544;51.666;6.634;2023-02-27T02:12:57;6.03;;;3.40;;
12958;SDS011;6544;51.666;6.634;2023-02-27T02:15:27;7.20;;;3.07;;
12958;SDS011;6544;51.666;6.634;2023-02-27T02:17:59;6.27;;;3.40;;
12958;SDS011;6544;51.666;6.634;2023-02-27T02:20:44;5.90;;;3.40;;
12958;SDS011;6544;51.666;6.634;2023-02-27T02:23:42;4.43;;;3.30;;
12958;SDS011;6544;51.666;6.634;2023-02-27T02:26:37;6.97;;;3.43;;
12958;SDS011;6544;51.666;6.634;2023-02-27T02:29:21;7.87;;;3.53;;
12958;SDS011;6544;51.666;6.634;2023-02-27T02:32:23;7.23;;;3.70;;
12958;SDS011;6544;51.666;6.634;2023-02-27T02:41:13;6.03;;;3.30;;
12958;SDS011;6544;51.666;6.634;2023-02-27T02:43:52;7.23;;;3.50;;
12958;SDS011;6544;51.666;6.634;2023-02-27T02:46:28;8.93;;;3.63;;
12958;SDS011;6544;51.666;6.634;2023-02-27T02:49:05;8.50;;;3.63;;
12958;SDS011;6544;51.666;6.634;2023-02-27T02:51:40;9.13;;;3.80;;
12958;SDS011;6544;51.666;6.634;2023-02-27T02:54:16;9.83;;;3.57;;
12958;SDS011;6544;51.666;6.634;2023-02-27T02:56:51;5.47;;;3.27;;
12958;SDS011;6544;51.666;6.634;2023-02-27T02:59:29;5.30;;;3.53;;
12958;SDS011;6544;51.666;6.634;2023-02-27T03:02:02;5.13;;;3.50;;
12958;SDS011;6544;51.666;6.634;2023-02-27T03:04:32;6.17;;;3.67;;
12958;SDS011;6544;51.666;6.634;2023-02-27T03:07:05;6.23;;;3.67;;
12958;SDS011;6544;51.666;6.634;2023-02-27T03:09:38;7.10;;;3.53;;
12958;SDS011;6544;51.666;6.634;2023-02-27T03:12:08;12.10;;;3.80;;
12958;SDS011;6544;51.666;6.634;2023-02-27T03:14:39;5.17;;;3.43;;
12958;SDS011;6544;51.666;6.634;2023-02-27T03:17:13;6.53;;;3.80;;
12958;SDS011;6544;51.666;6.634;2023-02-27T03:19:43;9.00;;;3.83;;
12958;SDS011;6544;51.666;6.634;2023-02-27T03:22:16;6.40;;;3.90;;
12958;SDS011;6544;51.666;6.634;2023-02-27T03:24:49;6.30;;;3.60;;
12958;SDS011;6544;51.666;6.634;2023-02-27T03:27:18;6.90;;;3.80;;
12958;SDS011;6544;51.666;6.634;2023-02-27T03:29:48;6.50;;;3.70;;
12958;SDS011;6544;51.666;6.634;2023-02-27T03:32:21;6.93;;;3.37;;
12958;SDS011;6544;51.666;6.634;2023-02-27T03:34:50;7.07;;;3.70;;
12958;SDS011;6544;51.666;6.634;2023-02-27T03:37:22;5.20;;;3.60;;
12958;SDS011;6544;51.666;6.634;2023-02-27T03:39:59;9.03;;;3.83;;
12958;SDS011;6544;51.666;6.634;2023-02-27T03:42:32;5.03;;;3.70;;
12958;SDS011;6544;51.666;6.634;2023-02-27T03:45:03;5.70;;;3.80;;
12958;SDS011;6544;51.666;6.634;2023-02-27T03:47:34;6.67;;;4.23;;
12958;SDS011;6544;51.666;6.634;2023-02-27T03:50:01;6.53;;;3.40;;
12958;SDS011;6544;51.666;6.634;2023-02-27T03:52:28;5.83;;;3.67;;
12958;SDS011;6544;51.666;6.634;2023-02-27T03:54:57;7.73;;;3.70;;
12958;SDS011;6544;51.666;6.634;2023-02-27T03:57:28;8.53;;;4.30;;
12958;SDS011;6544;51.666;6.634;2023-02-27T03:59:56;7.87;;;3.43;;
12958;SDS011;6544;51.666;6.634;2023-02-27T04:02:24;5.20;;;3.40;;
12958;SDS011;6544;51.666;6.634;2023-02-27T04:04:52;6.37;;;3.60;;
12958;SDS011;6544;51.666;6.634;2023-02-27T04:07:21;7.87;;;3.70;;
12958;SDS011;6544;51.666;6.634;2023-02-27T04:10:15;6.90;;;3.80;;
12958;SDS011;6544;51.666;6.634;2023-02-27T04:12:52;6.20;;;3.87;;
12958;SDS011;6544;51.666;6.634;2023-02-27T04:18:54;7.30;;;4.07;;
12958;SDS011;6544;51.666;6.634;2023-02-27T04:21:33;10.10;;;4.70;;
12958;SDS011;6544;51.666;6.634;2023-02-27T04:24:10;7.40;;;4.90;;
12958;SDS011;6544;51.666;6.634;2023-02-27T04:26:48;6.67;;;4.23;;
12958;SDS011;6544;51.666;6.634;2023-02-27T04:29:19;7.27;;;4.30;;
12958;SDS011;6544;51.666;6.634;2023-02-27T04:31:56;9.17;;;4.20;;
12958;SDS011;6544;51.666;6.634;2023-02-27T04:34:28;11.87;;;4.23;;
12958;SDS011;6544;51.666;6.634;2023-02-27T04:37:00;6.93;;;4.30;;
12958;SDS011;6544;51.666;6.634;2023-02-27T04:39:31;5.37;;;3.73;;
12958;SDS011;6544;51.666;6.634;2023-02-27T04:42:04;8.20;;;3.90;;
12958;SDS011;6544;51.666;6.634;2023-02-27T04:44:34;5.73;;;4.30;;
12958;SDS011;6544;51.666;6.634;2023-02-27T04:47:03;5.03;;;4.13;;
12958;SDS011;6544;51.666;6.634;2023-02-27T04:49:33;6.70;;;4.77;;
12958;SDS011;6544;51.666;6.634;2023-02-27T04:52:03;9.73;;;4.77;;
12958;SDS011;6544;51.666;6.634;2023-02-27T04:54:35;6.50;;;4.50;;
12958;SDS011;6544;51.666;6.634;2023-02-27T04:57:08;8.57;;;5.03;;
12958;SDS011;6544;51.666;6.634;2023-02-27T04:59:42;15.13;;;5.33;;
12958;SDS011;6544;51.666;6.634;2023-02-27T05:02:13;7.17;;;5.10;;
12958;SDS011;6544;51.666;6.634;2023-02-27T05:04:43;7.27;;;4.90;;
12958;SDS011;6544;51.666;6.634;2023-02-27T05:07:16;7.90;;;4.83;;
12958;SDS011;6544;51.666;6.634;2023-02-27T05:09:45;6.37;;;4.70;;
12958;SDS011;6544;51.666;6.634;2023-02-27T05:12:18;9.40;;;4.43;;
12958;SDS011;6544;51.666;6.634;2023-02-27T05:14:48;7.40;;;4.40;;
12958;SDS011;6544;51.666;6.634;2023-02-27T05:17:19;6.17;;;4.23;;
12958;SDS011;6544;51.666;6.634;2023-02-27T05:19:50;9.60;;;4.57;;
12958;SDS011;6544;51.666;6.634;2023-02-27T05:22:21;6.13;;;4.10;;
12958;SDS011;6544;51.666;6.634;2023-02-27T05:24:57;7.37;;;3.90;;
12958;SDS011;6544;51.666;6.634;2023-02-27T05:27:33;7.00;;;4.03;;
12958;SDS011;6544;51.666;6.634;2023-02-27T05:30:08;8.27;;;4.37;;
12958;SDS011;6544;51.666;6.634;2023-02-27T05:32:43;5.87;;;4.03;;
12958;SDS011;6544;51.666;6.634;2023-02-27T05:35:17;6.47;;;4.37;;
12958;SDS011;6544;51.666;6.634;2023-02-27T05:37:50;9.10;;;4.40;;
12958;SDS011;6544;51.666;6.634;2023-02-27T05:40:24;8.47;;;4.60;;
12958;SDS011;6544;51.666;6.634;2023-02-27T05:42:58;8.03;;;4.20;;
12958;SDS011;6544;51.666;6.634;2023-02-27T05:45:29;9.37;;;4.70;;
12958;SDS011;6544;51.666;6.634;2023-02-27T05:47:59;8.97;;;4.70;;
12958;SDS011;6544;51.666;6.634;2023-02-27T05:50:31;6.40;;;4.53;;
12958;SDS011;6544;51.666;6.634;2023-02-27T05:53:01;8.07;;;4.60;;
12958;SDS011;6544;51.666;6.634;2023-02-27T05:55:31;7.73;;;4.20;;
12958;SDS011;6544;51.666;6.634;2023-02-27T05:58:05;7.90;;;4.90;;
12958;SDS011;6544;51.666;6.634;2023-02-27T06:00:38;8.37;;;4.87;;
12958;SDS011;6544;51.666;6.634;2023-02-27T06:03:09;12.47;;;5.00;;
12958;SDS011;6544;51.666;6.634;2023-02-27T06:05:36;8.57;;;4.77;;
12958;SDS011;6544;51.666;6.634;2023-02-27T06:08:06;9.03;;;5.27;;
12958;SDS011;6544;51.666;6.634;2023-02-27T06:10:33;8.97;;;5.10;;
12958;SDS011;6544;51.666;6.634;2023-02-27T06:13:00;9.20;;;4.93;;
12958;SDS011;6544;51.666;6.634;2023-02-27T06:15:28;10.33;;;5.00;;
12958;SDS011;6544;51.666;6.634;2023-02-27T06:17:55;7.87;;;4.90;;
12958;SDS011;6544;51.666;6.634;2023-02-27T06:20:22;9.17;;;4.63;;
12958;SDS011;6544;51.666;6.634;2023-02-27T06:22:49;8.27;;;5.20;;
12958;SDS011;6544;51.666;6.634;2023-02-27T06:25:16;7.43;;;4.77;;
12958;SDS011;6544;51.666;6.634;2023-02-27T06:27:43;8.60;;;4.87;;
12958;SDS011;6544;51.666;6.634;2023-02-27T06:30:10;7.17;;;4.77;;
12958;SDS011;6544;51.666;6.634;2023-02-27T06:32:39;8.67;;;4.70;;
12958;SDS011;6544;51.666;6.634;2023-02-27T06:35:06;11.80;;;5.57;;
12958;SDS011;6544;51.666;6.634;2023-02-27T06:37:34;9.20;;;5.43;;
12958;SDS011;6544;51.666;6.634;2023-02-27T06:40:00;7.67;;;4.67;;
12958;SDS011;6544;51.666;6.634;2023-02-27T06:42:29;8.80;;;4.73;;
12958;SDS011;6544;51.666;6.634;2023-02-27T06:44:56;6.43;;;4.97;;
12958;SDS011;6544;51.666;6.634;2023-02-27T06:47:23;8.07;;;5.30;;
12958;SDS011;6544;51.666;6.634;2023-02-27T06:49:51;9.17;;;4.97;;
12958;SDS011;6544;51.666;6.634;2023-02-27T06:52:18;12.07;;;5.20;;
12958;SDS011;6544;51.666;6.634;2023-02-27T06:54:45;11.80;;;5.50;;
12958;SDS011;6544;51.666;6.634;2023-02-27T06:57:12;10.43;;;5.63;;
12958;SDS011;6544;51.666;6.634;2023-02-27T06:59:39;8.33;;;5.03;;
12958;SDS011;6544;51.666;6.634;2023-02-27T07:02:08;9.10;;;5.33;;
12958;SDS011;6544;51.666;6.634;2023-02-27T07:04:36;9.73;;;5.10;;
12958;SDS011;6544;51.666;6.634;2023-02-27T07:07:04;7.30;;;4.70;;
12958;SDS011;6544;51.666;6.634;2023-02-27T07:09:31;10.13;;;5.07;;
12958;SDS011;6544;51.666;6.634;2023-02-27T07:11:59;10.03;;;5.20;;
12958;SDS011;6544;51.666;6.634;2023-02-27T07:14:26;12.37;;;5.53;;
12958;SDS011;6544;51.666;6.634;2023-02-27T07:16:53;8.10;;;5.13;;
12958;SDS011;6544;51.666;6.634;2023-02-27T07:19:20;8.80;;;5.50;;
12958;SDS011;6544;51.666;6.634;2023-02-27T07:21:47;8.87;;;5.17;;
12958;SDS011;6544;51.666;6.634;2023-02-27T07:24:16;7.27;;;4.90;;
12958;SDS011;6544;51.666;6.634;2023-02-27T07:26:43;8.03;;;5.20;;
12958;SDS011;6544;51.666;6.634;2023-02-27T07:29:10;5.77;;;4.73;;
12958;SDS011;6544;51.666;6.634;2023-02-27T07:31:38;11.07;;;5.40;;
12958;SDS011;6544;51.666;6.634;2023-02-27T07:34:05;13.80;;;5.07;;
12958;SDS011;6544;51.666;6.634;2023-02-27T07:36:33;10.57;;;5.33;;
12958;SDS011;6544;51.666;6.634;2023-02-27T07:39:00;8.27;;;5.20;;
12958;SDS011;6544;51.666;6.634;2023-02-27T07:41:29;7.93;;;5.07;;
12958;SDS011;6544;51.666;6.634;2023-02-27T07:43:56;10.90;;;5.60;;
12958;SDS011;6544;51.666;6.634;2023-02-27T07:46:23;8.33;;;5.40;;
12958;SDS011;6544;51.666;6.634;2023-02-27T07:48:51;14.83;;;6.90;;
12958;SDS011;6544;51.666;6.634;2023-02-27T07:51:18;11.77;;;6.10;;
12958;SDS011;6544;51.666;6.634;2023-02-27T07:53:44;13.73;;;6.83;;
12958;SDS011;6544;51.666;6.634;2023-02-27T07:56:11;12.27;;;6.93;;
12958;SDS011;6544;51.666;6.634;2023-02-27T07:58:40;11.23;;;6.23;;
12958;SDS011;6544;51.666;6.634;2023-02-27T08:01:07;6.63;;;5.17;;
12958;SDS011;6544;51.666;6.634;2023-02-27T08:03:33;9.23;;;5.20;;
12958;SDS011;6544;51.666;6.634;2023-02-27T08:06:00;10.73;;;5.27;;
12958;SDS011;6544;51.666;6.634;2023-02-27T08:08:27;8.80;;;4.93;;
12958;SDS011;6544;51.666;6.634;2023-02-27T08:10:54;7.50;;;4.70;;
12958;SDS011;6544;51.666;6.634;2023-02-27T08:13:21;10.07;;;4.60;;
12958;SDS011;6544;51.666;6.634;2023-02-27T08:15:49;8.13;;;4.30;;
12958;SDS011;6544;51.666;6.634;2023-02-27T08:18:18;8.23;;;4.43;;
12958;SDS011;6544;51.666;6.634;2023-02-27T08:20:45;7.53;;;4.50;;
12958;SDS011;6544;51.666;6.634;2023-02-27T08:23:12;7.80;;;4.50;;
12958;SDS011;6544;51.666;6.634;2023-02-27T08:25:39;8.63;;;4.40;;
12958;SDS011;6544;51.666;6.634;2023-02-27T08:28:05;7.33;;;4.40;;
12958;SDS011;6544;51.666;6.634;2023-02-27T08:30:32;10.00;;;4.30;;
12958;SDS011;6544;51.666;6.634;2023-02-27T08:33:01;9.00;;;4.00;;
12958;SDS011;6544;51.666;6.634;2023-02-27T08:35:28;6.73;;;4.20;;
12958;SDS011;6544;51.666;6.634;2023-02-27T08:37:54;7.27;;;3.50;;
12958;SDS011;6544;51.666;6.634;2023-02-27T08:40:21;8.90;;;3.70;;
12958;SDS011;6544;51.666;6.634;2023-02-27T08:42:49;4.87;;;3.50;;
12958;SDS011;6544;51.666;6.634;2023-02-27T08:45:16;9.87;;;3.97;;
12958;SDS011;6544;51.666;6.634;2023-02-27T08:47:43;8.37;;;4.03;;
12958;SDS011;6544;51.666;6.634;2023-02-27T08:50:12;6.33;;;3.17;;
12958;SDS011;6544;51.666;6.634;2023-02-27T08:52:38;7.40;;;3.67;;
12958;SDS011;6544;51.666;6.634;2023-02-27T08:55:06;9.60;;;4.00;;
12958;SDS011;6544;51.666;6.634;2023-02-27T08:57:34;6.73;;;3.23;;
12958;SDS011;6544;51.666;6.634;2023-02-27T09:00:01;5.43;;;3.60;;
12958;SDS011;6544;51.666;6.634;2023-02-27T09:02:31;5.67;;;3.40;;
12958;SDS011;6544;51.666;6.634;2023-02-27T09:04:58;6.87;;;3.20;;
12958;SDS011;6544;51.666;6.634;2023-02-27T09:07:26;5.53;;;3.27;;
12958;SDS011;6544;51.666;6.634;2023-02-27T09:09:53;7.27;;;3.40;;
12958;SDS011;6544;51.666;6.634;2023-02-27T09:12:20;5.67;;;3.30;;
12958;SDS011;6544;51.666;6.634;2023-02-27T09:14:47;5.07;;;3.23;;
12958;SDS011;6544;51.666;6.634;2023-02-27T09:17:14;8.83;;;3.57;;
12958;SDS011;6544;51.666;6.634;2023-02-27T09:19:41;7.00;;;3.00;;
12958;SDS011;6544;51.666;6.634;2023-02-27T09:22:07;5.40;;;2.80;;
12958;SDS011;6544;51.666;6.634;2023-02-27T09:24:36;6.43;;;3.27;;
12958;SDS011;6544;51.666;6.634;2023-02-27T09:27:02;6.47;;;2.67;;
12958;SDS011;6544;51.666;6.634;2023-02-27T09:29:29;7.30;;;2.60;;
12958;SDS011;6544;51.666;6.634;2023-02-27T09:31:56;6.67;;;2.90;;
12958;SDS011;6544;51.666;6.634;2023-02-27T09:34:23;5.57;;;3.30;;
12958;SDS011;6544;51.666;6.634;2023-02-27T09:36:50;6.10;;;2.90;;
12958;SDS011;6544;51.666;6.634;2023-02-27T09:39:17;8.43;;;3.37;;
12958;SDS011;6544;51.666;6.634;2023-02-27T09:41:51;6.10;;;2.70;;
12958;SDS011;6544;51.666;6.634;2023-02-27T09:44:24;6.43;;;2.80;;
12958;SDS011;6544;51.666;6.634;2023-02-27T09:46:57;3.67;;;2.57;;
12958;SDS011;6544;51.666;6.634;2023-02-27T09:49:25;6.50;;;2.60;;
12958;SDS011;6544;51.666;6.634;2023-02-27T09:51:57;5.03;;;2.43;;
12958;SDS011;6544;51.666;6.634;2023-02-27T09:54:24;4.87;;;2.70;;
12958;SDS011;6544;51.666;6.634;2023-02-27T09:56:59;5.93;;;2.80;;
12958;SDS011;6544;51.666;6.634;2023-02-27T09:59:30;4.57;;;2.67;;
12958;SDS011;6544;51.666;6.634;2023-02-27T10:02:01;6.03;;;3.20;;
12958;SDS011;6544;51.666;6.634;2023-02-27T10:04:39;5.20;;;3.30;;
12958;SDS011;6544;51.666;6.634;2023-02-27T10:07:14;6.67;;;2.90;;
12958;SDS011;6544;51.666;6.634;2023-02-27T10:09:50;5.67;;;2.80;;
12958;SDS011;6544;51.666;6.634;2023-02-27T10:12:30;10.37;;;3.10;;
12958;SDS011;6544;51.666;6.634;2023-02-27T10:15:09;5.40;;;2.47;;
12958;SDS011;6544;51.666;6.634;2023-02-27T10:17:41;4.27;;;2.50;;
12958;SDS011;6544;51.666;6.634;2023-02-27T10:20:16;5.07;;;2.70;;
12958;SDS011;6544;51.666;6.634;2023-02-27T10:22:48;5.83;;;2.40;;
12958;SDS011;6544;51.666;6.634;2023-02-27T10:25:17;4.37;;;2.50;;
12958;SDS011;6544;51.666;6.634;2023-02-27T10:27:47;5.87;;;2.50;;
12958;SDS011;6544;51.666;6.634;2023-02-27T10:30:17;4.63;;;2.50;;
12958;SDS011;6544;51.666;6.634;2023-02-27T10:32:47;4.60;;;2.40;;
12958;SDS011;6544;51.666;6.634;2023-02-27T10:35:20;5.03;;;2.50;;
12958;SDS011;6544;51.666;6.634;2023-02-27T10:37:53;6.80;;;2.10;;
12958;SDS011;6544;51.666;6.634;2023-02-27T10:40:23;4.30;;;2.30;;
12958;SDS011;6544;51.666;6.634;2023-02-27T10:42:52;4.60;;;2.00;;
12958;SDS011;6544;51.666;6.634;2023-02-27T10:45:21;5.77;;;2.70;;
12958;SDS011;6544;51.666;6.634;2023-02-27T10:47:48;4.53;;;2.10;;
12958;SDS011;6544;51.666;6.634;2023-02-27T10:50:19;4.83;;;2.30;;
12958;SDS011;6544;51.666;6.634;2023-02-27T10:52:49;5.37;;;2.30;;
12958;SDS011;6544;51.666;6.634;2023-02-27T10:55:17;4.57;;;2.33;;
12958;SDS011;6544;51.666;6.634;2023-02-27T10:57:47;4.27;;;2.10;;
12958;SDS011;6544;51.666;6.634;2023-02-27T11:03:03;7.70;;;2.63;;
12958;SDS011;6544;51.666;6.634;2023-02-27T11:05:31;7.17;;;2.40;;
12958;SDS011;6544;51.666;6.634;2023-02-27T11:08:09;5.93;;;2.70;;
12958;SDS011;6544;51.666;6.634;2023-02-27T11:10:51;6.37;;;2.50;;
12958;SDS011;6544;51.666;6.634;2023-02-27T11:13:23;8.03;;;2.60;;
12958;SDS011;6544;51.666;6.634;2023-02-27T11:16:01;7.00;;;2.37;;
12958;SDS011;6544;51.666;6.634;2023-02-27T11:18:31;5.87;;;2.20;;
12958;SDS011;6544;51.666;6.634;2023-02-27T11:21:08;4.73;;;2.30;;
12958;SDS011;6544;51.666;6.634;2023-02-27T11:23:51;5.23;;;2.23;;
12958;SDS011;6544;51.666;6.634;2023-02-27T11:26:24;5.03;;;2.10;;
12958;SDS011;6544;51.666;6.634;2023-02-27T11:29:04;7.10;;;2.90;;
12958;SDS011;6544;51.666;6.634;2023-02-27T11:31:44;5.30;;;2.87;;
12958;SDS011;6544;51.666;6.634;2023-02-27T11:34:21;7.37;;;2.67;;
12958;SDS011;6544;51.666;6.634;2023-02-27T11:36:54;6.47;;;2.10;;
12958;SDS011;6544;51.666;6.634;2023-02-27T11:39:28;4.43;;;2.17;;
12958;SDS011;6544;51.666;6.634;2023-02-27T11:42:04;4.03;;;2.17;;
12958;SDS011;6544;51.666;6.634;2023-02-27T11:44:34;3.57;;;1.80;;
12958;SDS011;6544;51.666;6.634;2023-02-27T11:47:09;4.97;;;2.27;;
12958;SDS011;6544;51.666;6.634;2023-02-27T11:49:41;3.57;;;2.03;;
12958;SDS011;6544;51.666;6.634;2023-02-27T11:52:26;5.13;;;2.10;;
12958;SDS011;6544;51.666;6.634;2023-02-27T11:54:59;4.70;;;2.08;;
12958;SDS011;6544;51.666;6.634;2023-02-27T11:57:29;4.53;;;2.30;;
12958;SDS011;6544;51.666;6.634;2023-02-27T12:00:02;4.63;;;2.30;;
12958;SDS011;6544;51.666;6.634;2023-02-27T12:02:36;6.07;;;2.10;;
12958;SDS011;6544;51.666;6.634;2023-02-27T12:05:11;3.88;;;2.05;;
12958;SDS011;6544;51.666;6.634;2023-02-27T12:07:43;2.97;;;1.97;;
12958;SDS011;6544;51.666;6.634;2023-02-27T12:10:17;4.53;;;2.10;;
12958;SDS011;6544;51.666;6.634;2023-02-27T12:12:46;4.30;;;2.00;;
12958;SDS011;6544;51.666;6.634;2023-02-27T12:46:23;6.45;;;2.22;;
12958;SDS011;6544;51.666;6.634;2023-02-27T12:49:08;7.17;;;2.43;;
12958;SDS011;6544;51.666;6.634;2023-02-27T12:51:43;4.07;;;2.40;;
12958;SDS011;6544;51.666;6.634;2023-02-27T12:54:18;5.00;;;1.97;;
12958;SDS011;6544;51.666;6.634;2023-02-27T12:59:56;2.55;;;1.60;;
12958;SDS011;6544;51.666;6.634;2023-02-27T13:02:39;5.90;;;2.00;;
12958;SDS011;6544;51.666;6.634;2023-02-27T13:05:19;6.10;;;1.88;;
12958;SDS011;6544;51.666;6.634;2023-02-27T13:08:01;3.67;;;1.80;;
12958;SDS011;6544;51.666;6.634;2023-02-27T13:10:39;4.60;;;1.70;;
12958;SDS011;6544;51.666;6.634;2023-02-27T13:13:11;5.43;;;2.00;;
12958;SDS011;6544;51.666;6.634;2023-02-27T13:15:44;5.15;;;2.10;;
12958;SDS011;6544;51.666;6.634;2023-02-27T13:18:25;3.85;;;2.05;;
12958;SDS011;6544;51.666;6.634;2023-02-27T13:20:58;4.55;;;1.90;;
12958;SDS011;6544;51.666;6.634;2023-02-27T13:23:30;6.38;;;2.10;;
12958;SDS011;6544;51.666;6.634;2023-02-27T13:26:02;2.72;;;1.58;;
12958;SDS011;6544;51.666;6.634;2023-02-27T13:28:39;3.80;;;1.90;;
12958;SDS011;6544;51.666;6.634;2023-02-27T13:31:07;3.45;;;1.80;;
12958;SDS011;6544;51.666;6.634;2023-02-27T13:33:46;3.70;;;2.00;;
12958;SDS011;6544;51.666;6.634;2023-02-27T13:36:29;5.28;;;2.40;;
12958;SDS011;6544;51.666;6.634;2023-02-27T13:39:00;3.47;;;2.03;;
12958;SDS011;6544;51.666;6.634;2023-02-27T13:53:12;3.78;;;2.10;;
12958;SDS011;6544;51.666;6.634;2023-02-27T13:55:43;4.00;;;2.20;;
12958;SDS011;6544;51.666;6.634;2023-02-27T13:58:14;5.15;;;3.08;;
12958;SDS011;6544;51.666;6.634;2023-02-27T14:00:51;6.00;;;2.78;;
12958;SDS011;6544;51.666;6.634;2023-02-27T14:03:22;3.67;;;2.50;;
12958;SDS011;6544;51.666;6.634;2023-02-27T14:05:53;3.88;;;2.38;;
12958;SDS011;6544;51.666;6.634;2023-02-27T14:08:24;10.65;;;2.88;;
12958;SDS011;6544;51.666;6.634;2023-02-27T14:10:54;3.80;;;2.67;;
12958;SDS011;6544;51.666;6.634;2023-02-27T14:19:42;5.25;;;3.10;;
12958;SDS011;6544;51.666;6.634;2023-02-27T14:22:35;5.73;;;3.40;;
12958;SDS011;6544;51.666;6.634;2023-02-27T14:28:03;5.50;;;3.30;;
12958;SDS011;6544;51.666;6.634;2023-02-27T14:30:37;4.70;;;3.23;;
12958;SDS011;6544;51.666;6.634;2023-02-27T14:33:16;5.03;;;3.00;;
12958;SDS011;6544;51.666;6.634;2023-02-27T14:35:49;6.90;;;2.60;;
12958;SDS011;6544;51.666;6.634;2023-02-27T14:38:24;5.57;;;2.63;;
12958;SDS011;6544;51.666;6.634;2023-02-27T14:40:59;4.27;;;2.87;;
12958;SDS011;6544;51.666;6.634;2023-02-27T14:43:37;3.67;;;2.60;;
12958;SDS011;6544;51.666;6.634;2023-02-27T14:46:22;3.97;;;2.50;;
12958;SDS011;6544;51.666;6.634;2023-02-27T14:48:54;3.10;;;2.33;;
12958;SDS011;6544;51.666;6.634;2023-02-27T14:51:23;4.07;;;2.40;;
12958;SDS011;6544;51.666;6.634;2023-02-27T14:53:59;3.10;;;2.50;;
12958;SDS011;6544;51.666;6.634;2023-02-27T14:56:28;3.67;;;2.40;;
12958;SDS011;6544;51.666;6.634;2023-02-27T14:58:55;3.03;;;2.30;;
12958;SDS011;6544;51.666;6.634;2023-02-27T15:01:23;4.72;;;2.60;;
12958;SDS011;6544;51.666;6.634;2023-02-27T15:03:54;4.33;;;2.13;;
12958;SDS011;6544;51.666;6.634;2023-02-27T15:06:27;5.40;;;2.70;;
12958;SDS011;6544;51.666;6.634;2023-02-27T15:09:03;5.20;;;2.33;;
12958;SDS011;6544;51.666;6.634;2023-02-27T15:11:31;4.33;;;2.47;;
12958;SDS011;6544;51.666;6.634;2023-02-27T15:13:59;5.67;;;2.30;;
12958;SDS011;6544;51.666;6.634;2023-02-27T15:16:30;4.73;;;2.33;;
12958;SDS011;6544;51.666;6.634;2023-02-27T15:19:03;3.67;;;2.00;;
12958;SDS011;6544;51.666;6.634;2023-02-27T15:21:39;4.97;;;2.33;;
12958;SDS011;6544;51.666;6.634;2023-02-27T15:24:18;7.70;;;2.93;;
12958;SDS011;6544;51.666;6.634;2023-02-27T15:26:47;3.87;;;2.30;;
12958;SDS011;6544;51.666;6.634;2023-02-27T15:29:19;4.20;;;2.27;;
12958;SDS011;6544;51.666;6.634;2023-02-27T15:31:48;5.97;;;2.63;;
12958;SDS011;6544;51.666;6.634;2023-02-27T15:34:15;5.03;;;2.50;;
12958;SDS011;6544;51.666;6.634;2023-02-27T15:36:44;3.90;;;2.40;;
12958;SDS011;6544;51.666;6.634;2023-02-27T15:39:15;5.40;;;2.35;;
12958;SDS011;6544;51.666;6.634;2023-02-27T15:41:45;4.80;;;2.40;;
12958;SDS011;6544;51.666;6.634;2023-02-27T15:44:14;4.43;;;2.20;;
12958;SDS011;6544;51.666;6.634;2023-02-27T15:46:42;4.97;;;2.83;;
12958;SDS011;6544;51.666;6.634;2023-02-27T15:49:14;4.20;;;2.20;;
12958;SDS011;6544;51.666;6.634;2023-02-27T15:51:45;3.63;;;2.40;;
12958;SDS011;6544;51.666;6.634;2023-02-27T15:54:13;3.37;;;2.40;;
12958;SDS011;6544;51.666;6.634;2023-02-27T15:56:40;6.40;;;2.30;;
12958;SDS011;6544;51.666;6.634;2023-02-27T15:59:10;4.60;;;2.43;;
12958;SDS011;6544;51.666;6.634;2023-02-27T16:01:42;5.67;;;2.23;;
12958;SDS011;6544;51.666;6.634;2023-02-27T16:04:15;3.83;;;2.40;;
12958;SDS011;6544;51.666;6.634;2023-02-27T16:06:48;3.53;;;2.10;;
12958;SDS011;6544;51.666;6.634;2023-02-27T16:09:19;5.43;;;2.53;;
12958;SDS011;6544;51.666;6.634;2023-02-27T16:11:48;5.07;;;2.30;;
12958;SDS011;6544;51.666;6.634;2023-02-27T16:14:36;5.90;;;2.47;;
12958;SDS011;6544;51.666;6.634;2023-02-27T16:17:19;4.07;;;2.40;;
12958;SDS011;6544;51.666;6.634;2023-02-27T16:19:52;5.30;;;2.53;;
12958;SDS011;6544;51.666;6.634;2023-02-27T16:22:20;12.27;;;3.50;;
12958;SDS011;6544;51.666;6.634;2023-02-27T16:24:50;5.87;;;2.80;;
12958;SDS011;6544;51.666;6.634;2023-02-27T16:27:18;6.97;;;2.80;;
12958;SDS011;6544;51.666;6.634;2023-02-27T16:29:50;8.43;;;2.50;;
12958;SDS011;6544;51.666;6.634;2023-02-27T16:32:20;6.17;;;2.50;;